Time;durP1;ratioP1;P1;durP2;ratioP2;P2;SDS_P1;SDS_P2;PMS_P1;PMS_P2;Temp;Humidity;BMP_temperature;BMP_pressure;BME280_temperature;BME280_humidity;BME280_pressure;Samples;Min_cycle;Max_cycle;Signal;HPM_P1;HPM_P2
2023/07/26 00:01:27;;;;;;;2.00;1.30;;;26.40;44.20;;;;;;5012970;28;20456;-76
2023/07/26 00:03:58;;;;;;;2.47;1.30;;;26.40;44.20;;;;;;5013627;28;20471;-77
2023/07/26 00:06:26;;;;;;;1.70;1.60;;;26.40;44.30;;;;;;5014626;28;20407;-76
2023/07/26 00:08:54;;;;;;;1.40;1.30;;;26.40;44.20;;;;;;5014473;28;20447;-77
2023/07/26 00:11:22;;;;;;;1.33;1.23;;;26.30;44.20;;;;;;5014665;28;20507;-76
2023/07/26 00:13:49;;;;;;;3.37;1.80;;;26.30;44.20;;;;;;5012386;28;20427;-76
2023/07/26 00:16:18;;;;;;;1.53;1.43;;;26.30;44.20;;;;;;5014813;28;20520;-77
2023/07/26 00:18:45;;;;;;;2.13;1.80;;;26.30;44.30;;;;;;5014555;28;20430;-76
2023/07/26 00:21:15;;;;;;;1.77;1.50;;;26.20;44.20;;;;;;5015009;28;20519;-76
2023/07/26 00:23:43;;;;;;;2.73;1.53;;;26.20;44.30;;;;;;5014382;28;20481;-76
2023/07/26 00:26:11;;;;;;;3.67;1.70;;;26.20;44.20;;;;;;5013386;28;20464;-77
2023/07/26 00:28:38;;;;;;;1.90;1.40;;;26.20;44.20;;;;;;5014099;28;20449;-76
2023/07/26 00:31:06;;;;;;;1.80;1.40;;;26.20;44.30;;;;;;5014106;28;20801;-76
2023/07/26 00:33:34;;;;;;;3.43;1.80;;;26.20;44.20;;;;;;5014499;28;20439;-77
2023/07/26 00:36:02;;;;;;;1.60;1.50;;;26.20;44.20;;;;;;5013372;28;20478;-77
2023/07/26 00:38:32;;;;;;;2.53;1.50;;;26.20;44.10;;;;;;5014150;28;20434;-76
2023/07/26 00:41:00;;;;;;;2.40;1.50;;;26.20;44.20;;;;;;5015557;28;20487;-76
2023/07/26 00:43:28;;;;;;;1.70;1.60;;;26.20;44.30;;;;;;5009186;28;20526;-76
2023/07/26 00:45:56;;;;;;;2.30;1.70;;;26.10;44.20;;;;;;5013903;28;20458;-77
2023/07/26 00:48:25;;;;;;;3.33;1.90;;;26.10;44.20;;;;;;5014142;28;20492;-76
2023/07/26 00:50:53;;;;;;;4.43;1.80;;;26.10;44.30;;;;;;5013539;28;20458;-76
2023/07/26 00:53:27;;;;;;;2.30;1.53;;;26.10;44.30;;;;;;5014041;28;20472;-77
2023/07/26 00:56:00;;;;;;;1.90;1.57;;;26.10;44.30;;;;;;5013541;28;20460;-76
2023/07/26 00:58:28;;;;;;;2.83;1.57;;;26.10;44.40;;;;;;5013610;28;20447;-77
2023/07/26 01:00:56;;;;;;;1.93;1.50;;;26.00;44.30;;;;;;5013798;28;20503;-77
2023/07/26 01:03:25;;;;;;;2.43;1.80;;;26.00;44.30;;;;;;5014007;28;20449;-76
2023/07/26 01:06:01;;;;;;;2.90;1.80;;;26.00;44.40;;;;;;5013335;28;20419;-76
2023/07/26 01:08:35;;;;;;;6.33;1.50;;;26.00;44.30;;;;;;5013337;28;20444;-77
2023/07/26 01:11:06;;;;;;;1.73;1.47;;;26.00;44.90;;;;;;5013726;28;20486;-76
2023/07/26 01:13:36;;;;;;;2.60;1.30;;;26.00;44.30;;;;;;5013673;28;20450;-77
2023/07/26 01:16:05;;;;;;;1.20;1.20;;;26.00;44.30;;;;;;5013245;28;20530;-77
2023/07/26 01:18:33;;;;;;;1.60;1.33;;;26.00;44.40;;;;;;5013627;28;20564;-76
2023/07/26 01:21:00;;;;;;;2.90;1.37;;;25.90;44.30;;;;;;5012875;28;20461;-76
2023/07/26 01:23:29;;;;;;;1.27;1.17;;;25.90;44.30;;;;;;5013617;28;20442;-77
2023/07/26 01:25:57;;;;;;;4.23;1.50;;;25.90;44.30;;;;;;5013556;28;20519;-76
2023/07/26 01:28:25;;;;;;;2.27;1.57;;;25.90;44.60;;;;;;5013133;28;20460;-77
2023/07/26 01:30:52;;;;;;;2.40;1.63;;;25.90;44.50;;;;;;5013111;28;20905;-77
2023/07/26 01:33:20;;;;;;;2.00;1.70;;;25.90;44.50;;;;;;5010136;28;20449;-76
2023/07/26 01:35:48;;;;;;;2.60;2.40;;;25.90;44.50;;;;;;5011912;28;20446;-76
2023/07/26 01:38:16;;;;;;;5.43;2.00;;;25.90;44.50;;;;;;5013139;28;20476;-76
2023/07/26 01:40:45;;;;;;;2.90;2.70;;;25.80;44.30;;;;;;5013143;28;20442;-76
2023/07/26 01:43:13;;;;;;;2.73;2.60;;;25.90;44.40;;;;;;5012921;28;21014;-77
2023/07/26 01:45:41;;;;;;;4.77;3.40;;;25.80;44.40;;;;;;5013194;28;20471;-77
2023/07/26 01:48:09;;;;;;;3.40;3.10;;;25.80;44.60;;;;;;5013175;28;20493;-77
2023/07/26 01:50:37;;;;;;;3.57;3.30;;;25.80;44.50;;;;;;5012944;28;20444;-77
2023/07/26 01:53:05;;;;;;;3.80;3.20;;;25.80;44.50;;;;;;5012855;28;20897;-76
2023/07/26 01:55:33;;;;;;;5.07;3.40;;;25.80;44.60;;;;;;5004721;28;20486;-76
2023/07/26 01:58:02;;;;;;;5.73;4.93;;;25.80;44.50;;;;;;5012919;28;20555;-76
2023/07/26 02:00:30;;;;;;;6.40;4.97;;;25.70;44.60;;;;;;5012940;28;20471;-77
2023/07/26 02:02:58;;;;;;;11.97;4.70;;;25.70;44.60;;;;;;5012969;28;20414;-76
2023/07/26 02:05:26;;;;;;;6.50;5.30;;;25.70;44.70;;;;;;5012446;28;20440;-76
2023/07/26 02:07:54;;;;;;;11.20;7.80;;;25.70;44.70;;;;;;5012608;28;20522;-76
2023/07/26 02:10:23;;;;;;;6.87;6.17;;;25.70;44.70;;;;;;5012495;28;21009;-76
2023/07/26 02:12:51;;;;;;;8.87;7.33;;;25.70;44.60;;;;;;5012826;28;20502;-76
2023/07/26 02:15:21;;;;;;;10.40;7.83;;;25.70;44.80;;;;;;5012775;28;20450;-76
2023/07/26 02:17:49;;;;;;;9.03;7.07;;;25.70;44.70;;;;;;5012478;28;20480;-76
2023/07/26 02:20:17;;;;;;;9.33;7.37;;;25.70;44.70;;;;;;4994577;28;20420;-76
2023/07/26 02:22:44;;;;;;;10.90;7.20;;;25.70;44.70;;;;;;5012668;28;20411;-76
2023/07/26 02:25:13;;;;;;;10.23;8.00;;;25.70;44.60;;;;;;5012106;28;20411;-75
2023/07/26 02:27:40;;;;;;;9.00;7.70;;;25.70;44.70;;;;;;5012498;28;20426;-76
2023/07/26 02:30:09;;;;;;;7.67;6.70;;;25.60;44.70;;;;;;5012503;28;20460;-76
2023/07/26 02:32:39;;;;;;;11.07;7.60;;;25.60;44.80;;;;;;5012196;28;20414;-76
2023/07/26 02:35:08;;;;;;;8.93;6.80;;;25.60;44.70;;;;;;5012195;28;20419;-76
2023/07/26 02:37:36;;;;;;;7.90;6.83;;;25.60;44.90;;;;;;5012140;28;20457;-75
2023/07/26 02:40:05;;;;;;;8.27;6.50;;;25.60;45.00;;;;;;4992707;28;20465;-76
2023/07/26 02:42:33;;;;;;;16.20;8.00;;;25.60;44.90;;;;;;4992706;28;20469;-76
2023/07/26 02:45:01;;;;;;;9.17;7.00;;;25.60;44.90;;;;;;5010617;28;20484;-76
2023/07/26 02:47:32;;;;;;;7.13;6.40;;;25.50;44.60;;;;;;5012221;28;20447;-77
2023/07/26 02:50:04;;;;;;;8.10;6.63;;;25.50;44.80;;;;;;5012454;28;20452;-76
2023/07/26 02:52:32;;;;;;;7.60;6.10;;;25.50;44.90;;;;;;5012226;28;20478;-77
2023/07/26 02:55:01;;;;;;;7.53;6.33;;;25.50;44.80;;;;;;5012510;28;20474;-76
2023/07/26 02:57:29;;;;;;;9.37;5.60;;;25.50;44.70;;;;;;5011572;28;20464;-76
2023/07/26 02:59:57;;;;;;;7.23;5.37;;;25.40;44.60;;;;;;5012126;28;20547;-77
2023/07/26 03:02:25;;;;;;;6.07;5.37;;;25.40;44.80;;;;;;5011931;28;20433;-76
2023/07/26 03:04:53;;;;;;;7.20;5.23;;;25.50;44.90;;;;;;5012343;28;20407;-77
2023/07/26 03:07:22;;;;;;;7.20;4.70;;;25.40;44.90;;;;;;4992319;28;20878;-77
2023/07/26 03:09:50;;;;;;;5.63;5.00;;;25.40;44.70;;;;;;4992861;28;20498;-77
2023/07/26 03:12:18;;;;;;;4.80;4.10;;;25.40;44.80;;;;;;5000851;28;20440;-76
2023/07/26 03:14:46;;;;;;;4.33;3.93;;;25.40;44.80;;;;;;5007457;28;20461;-76
2023/07/26 03:17:13;;;;;;;11.13;4.50;;;25.40;44.90;;;;;;5011637;28;20489;-76
2023/07/26 03:19:50;;;;;;;4.50;4.10;;;25.40;44.80;;;;;;5011973;28;20403;-76
2023/07/26 03:22:18;;;;;;;5.73;3.80;;;25.40;44.90;;;;;;5012138;28;20448;-76
2023/07/26 03:24:48;;;;;;;4.57;3.70;;;25.40;44.80;;;;;;5012261;28;20451;-76
2023/07/26 03:27:16;;;;;;;5.20;3.63;;;25.40;44.90;;;;;;5011858;28;20533;-77
2023/07/26 03:29:44;;;;;;;3.73;3.47;;;25.40;44.90;;;;;;4993184;28;20528;-76
2023/07/26 03:32:12;;;;;;;3.60;3.30;;;25.40;44.90;;;;;;5014326;28;20407;-76
2023/07/26 03:34:39;;;;;;;3.97;3.20;;;25.40;45.00;;;;;;5015874;28;20461;-77
2023/07/26 03:37:09;;;;;;;3.97;3.30;;;25.40;44.90;;;;;;5015020;28;20472;-76
2023/07/26 03:39:37;;;;;;;3.20;3.00;;;25.40;44.90;;;;;;5015443;28;20471;-76
2023/07/26 03:42:07;;;;;;;3.13;2.80;;;25.30;44.90;;;;;;5014932;28;20450;-76
2023/07/26 03:44:35;;;;;;;6.10;3.20;;;25.30;45.00;;;;;;5015314;28;20448;-77
2023/07/26 03:47:03;;;;;;;3.00;2.80;;;25.30;45.00;;;;;;5015304;28;20511;-77
2023/07/26 03:49:31;;;;;;;2.77;2.57;;;25.20;45.00;;;;;;5015457;28;20419;-76
2023/07/26 03:51:58;;;;;;;2.50;2.30;;;25.30;45.00;;;;;;5015019;28;20501;-76
2023/07/26 03:54:26;;;;;;;4.93;2.77;;;25.30;45.20;;;;;;5014896;28;20440;-76
2023/07/26 03:56:54;;;;;;;2.53;2.40;;;25.20;45.10;;;;;;5015061;28;20509;-77
2023/07/26 03:59:24;;;;;;;2.70;2.13;;;25.30;45.30;;;;;;5014986;28;20441;-77
2023/07/26 04:01:52;;;;;;;3.47;2.60;;;25.20;45.10;;;;;;5014469;28;20612;-77
2023/07/26 04:04:19;;;;;;;2.20;2.10;;;25.30;45.10;;;;;;5014204;28;20448;-77
2023/07/26 04:06:48;;;;;;;2.30;2.07;;;25.30;45.30;;;;;;5014778;28;20479;-77
2023/07/26 04:09:15;;;;;;;2.37;2.10;;;25.30;45.10;;;;;;5014949;28;20484;-77
2023/07/26 04:11:43;;;;;;;2.13;2.03;;;25.30;45.10;;;;;;5014767;28;20447;-77
2023/07/26 04:14:11;;;;;;;2.73;2.53;;;25.30;45.20;;;;;;5014405;28;20950;-77
2023/07/26 04:16:40;;;;;;;2.07;1.97;;;25.20;45.10;;;;;;5014535;28;20496;-77
2023/07/26 04:19:08;;;;;;;2.30;2.10;;;25.20;45.20;;;;;;5014077;28;20452;-75
2023/07/26 04:21:36;;;;;;;2.73;2.13;;;25.20;45.30;;;;;;5014503;28;20483;-76
2023/07/26 04:24:07;;;;;;;2.13;2.03;;;25.20;45.10;;;;;;5014383;28;20926;-76
2023/07/26 04:26:35;;;;;;;1.90;1.80;;;25.20;45.30;;;;;;5014388;28;20893;-76
2023/07/26 04:29:03;;;;;;;3.77;2.20;;;25.20;45.30;;;;;;5014391;28;20463;-76
2023/07/26 04:31:30;;;;;;;2.23;2.03;;;25.20;45.30;;;;;;5013961;28;20490;-76
2023/07/26 04:34:00;;;;;;;2.30;2.10;;;25.20;45.20;;;;;;5009966;28;20444;-76
2023/07/26 04:36:27;;;;;;;3.13;1.97;;;25.20;45.30;;;;;;5010521;28;20450;-76
2023/07/26 04:38:55;;;;;;;2.00;1.90;;;25.20;45.30;;;;;;5010043;28;20500;-76
2023/07/26 04:41:23;;;;;;;2.03;1.93;;;25.20;45.30;;;;;;5006266;28;20480;-76
2023/07/26 04:43:51;;;;;;;2.40;1.93;;;25.20;45.30;;;;;;5014206;28;20498;-76
2023/07/26 04:46:19;;;;;;;2.13;1.90;;;25.20;45.40;;;;;;5014259;28;20440;-76
2023/07/26 04:48:47;;;;;;;2.30;2.10;;;25.20;45.40;;;;;;5013949;28;20810;-75
2023/07/26 04:51:16;;;;;;;1.77;1.67;;;25.20;45.40;;;;;;5015585;28;20442;-75
2023/07/26 04:53:43;;;;;;;2.13;1.87;;;25.20;45.60;;;;;;5009795;28;20443;-76
2023/07/26 04:56:15;;;;;;;2.30;1.80;;;25.20;45.40;;;;;;5014207;28;20445;-76
2023/07/26 04:58:43;;;;;;;2.00;1.90;;;25.20;45.40;;;;;;5014045;28;20473;-76
2023/07/26 05:01:11;;;;;;;3.90;1.40;;;25.20;45.60;;;;;;5012954;28;20518;-76
2023/07/26 05:03:39;;;;;;;1.83;1.73;;;25.20;45.70;;;;;;5013714;28;20800;-76
2023/07/26 05:06:07;;;;;;;4.30;1.87;;;25.20;45.60;;;;;;5013792;28;20448;-76
2023/07/26 05:08:36;;;;;;;1.83;1.73;;;25.20;45.60;;;;;;5003064;28;20443;-76
2023/07/26 05:11:05;;;;;;;1.60;1.50;;;25.20;45.60;;;;;;5007506;28;20485;-77
2023/07/26 05:13:33;;;;;;;1.90;1.80;;;25.20;45.60;;;;;;5005770;28;20535;-76
2023/07/26 05:16:00;;;;;;;1.80;1.70;;;25.20;45.60;;;;;;5005898;28;20439;-76
2023/07/26 05:18:28;;;;;;;1.60;1.50;;;25.20;45.60;;;;;;5013031;28;20505;-76
2023/07/26 05:20:56;;;;;;;2.33;1.67;;;25.20;45.70;;;;;;5013452;28;20437;-76
2023/07/26 05:23:24;;;;;;;1.80;1.67;;;25.20;45.70;;;;;;5013723;28;20445;-76
2023/07/26 05:25:53;;;;;;;1.70;1.60;;;25.20;45.70;;;;;;5013345;28;20464;-76
2023/07/26 05:28:21;;;;;;;3.53;1.90;;;25.20;45.50;;;;;;5012831;28;20499;-76
2023/07/26 05:30:50;;;;;;;1.87;1.57;;;25.20;45.60;;;;;;5013136;28;20433;-76
2023/07/26 05:33:18;;;;;;;2.47;1.70;;;25.20;45.70;;;;;;5013489;28;20407;-76
2023/07/26 05:35:46;;;;;;;1.60;1.50;;;25.20;45.60;;;;;;5013321;28;20555;-76
2023/07/26 05:38:13;;;;;;;1.93;1.60;;;25.20;45.70;;;;;;5013549;28;20550;-75
2023/07/26 05:40:42;;;;;;;2.00;1.90;;;25.30;45.60;;;;;;5013281;28;20508;-77
2023/07/26 05:43:11;;;;;;;2.57;2.30;;;25.30;45.80;;;;;;5013158;28;20430;-76
2023/07/26 05:45:40;;;;;;;2.30;2.10;;;25.40;45.70;;;;;;5012549;28;20502;-76
2023/07/26 05:48:08;;;;;;;1.90;1.80;;;25.40;45.70;;;;;;5013105;28;20455;-76
2023/07/26 05:50:36;;;;;;;2.30;2.10;;;25.30;45.50;;;;;;4993453;28;20437;-76
2023/07/26 05:53:04;;;;;;;2.47;2.27;;;25.40;45.70;;;;;;5008593;28;20477;-76
2023/07/26 05:55:32;;;;;;;2.00;1.90;;;25.40;45.70;;;;;;5012886;28;20529;-76
2023/07/26 05:58:00;;;;;;;3.20;2.27;;;25.40;45.60;;;;;;5012860;28;20457;-76
2023/07/26 06:00:29;;;;;;;3.23;2.17;;;25.40;45.70;;;;;;5013017;28;20505;-76
2023/07/26 06:02:57;;;;;;;1.80;1.70;;;25.40;45.60;;;;;;5012473;28;20423;-76
2023/07/26 06:05:25;;;;;;;1.70;1.60;;;25.40;45.80;;;;;;5008430;28;20498;-76
2023/07/26 06:07:53;;;;;;;2.70;1.90;;;25.40;45.80;;;;;;5012538;28;20548;-76
2023/07/26 06:10:21;;;;;;;2.00;1.90;;;25.40;45.80;;;;;;5012699;28;20536;-76
2023/07/26 06:12:49;;;;;;;2.00;1.90;;;25.50;45.80;;;;;;5012425;28;20577;-76
2023/07/26 06:15:18;;;;;;;2.60;2.03;;;25.50;45.70;;;;;;5012634;28;20421;-76
2023/07/26 06:17:47;;;;;;;2.13;2.03;;;25.40;45.80;;;;;;5012444;28;20500;-77
2023/07/26 06:20:15;;;;;;;2.00;1.90;;;25.40;45.70;;;;;;5012069;28;20488;-76
2023/07/26 06:22:42;;;;;;;2.30;1.90;;;25.50;45.90;;;;;;5012580;28;20454;-75
2023/07/26 06:25:10;;;;;;;3.00;1.80;;;25.50;45.70;;;;;;5012554;28;20532;-76
2023/07/26 06:27:39;;;;;;;3.43;2.13;;;25.60;46.30;;;;;;5012175;28;20514;-76
2023/07/26 06:30:08;;;;;;;1.93;1.83;;;25.60;45.70;;;;;;5012483;28;20414;-76
2023/07/26 06:32:36;;;;;;;3.50;1.93;;;25.60;45.70;;;;;;5012122;28;20415;-75
2023/07/26 06:35:06;;;;;;;2.60;2.10;;;25.70;45.60;;;;;;5012642;28;20428;-75
2023/07/26 06:37:34;;;;;;;1.87;1.70;;;25.70;45.40;;;;;;5011972;28;20512;-75
2023/07/26 06:40:03;;;;;;;1.87;1.77;;;25.70;45.60;;;;;;5012583;28;20460;-76
2023/07/26 06:42:32;;;;;;;1.73;1.63;;;25.80;45.50;;;;;;5011593;28;20925;-75
2023/07/26 06:45:00;;;;;;;1.77;1.67;;;25.70;45.60;;;;;;5010083;28;20882;-76
2023/07/26 06:47:28;;;;;;;2.03;1.83;;;25.80;45.50;;;;;;5011435;28;20464;-75
2023/07/26 06:49:56;;;;;;;1.50;1.50;;;25.80;45.60;;;;;;5008866;28;20500;-76
2023/07/26 06:52:25;;;;;;;1.63;1.53;;;25.80;45.60;;;;;;5011041;28;20965;-76
2023/07/26 06:54:53;;;;;;;3.43;2.00;;;25.80;45.50;;;;;;5012002;28;20450;-77
2023/07/26 06:57:21;;;;;;;2.13;1.93;;;25.80;45.80;;;;;;5012055;28;20539;-77
2023/07/26 06:59:49;;;;;;;1.80;1.70;;;25.80;45.70;;;;;;5012334;28;20485;-75
2023/07/26 07:02:17;;;;;;;1.60;1.50;;;25.80;45.60;;;;;;5012520;28;20447;-76
2023/07/26 07:04:45;;;;;;;1.93;1.60;;;25.80;45.70;;;;;;5005501;28;20479;-75
2023/07/26 07:07:13;;;;;;;1.73;1.40;;;25.90;45.80;;;;;;5012121;28;20542;-76
2023/07/26 07:09:43;;;;;;;5.40;1.93;;;25.90;45.50;;;;;;5016430;28;20486;-76
2023/07/26 07:12:10;;;;;;;2.10;1.57;;;25.90;45.50;;;;;;5015088;28;20442;-76
2023/07/26 07:14:39;;;;;;;1.67;1.50;;;26.00;45.70;;;;;;4996508;28;20532;-76
2023/07/26 07:17:06;;;;;;;4.27;1.80;;;25.90;45.50;;;;;;4996195;28;20396;-76
2023/07/26 07:19:34;;;;;;;1.77;1.50;;;26.00;46.10;;;;;;4996537;28;20585;-76
2023/07/26 07:22:03;;;;;;;9.93;1.50;;;26.00;45.70;;;;;;5009256;28;20461;-75
2023/07/26 07:24:31;;;;;;;1.97;1.53;;;26.00;45.50;;;;;;5015833;28;20417;-75
2023/07/26 07:27:01;;;;;;;3.73;1.40;;;26.00;45.60;;;;;;5015289;28;20430;-75
2023/07/26 07:29:29;;;;;;;2.43;1.77;;;26.10;45.60;;;;;;5015425;28;20442;-76
2023/07/26 07:31:57;;;;;;;2.13;1.40;;;26.20;45.60;;;;;;5015187;28;20435;-75
2023/07/26 07:34:46;;;;;;;1.97;1.70;;;26.20;45.40;;;;;;5015247;28;20436;-75
2023/07/26 07:37:14;;;;;;;8.80;2.23;;;26.20;45.30;;;;;;5006360;28;20501;-75
2023/07/26 07:39:41;;;;;;;1.80;1.70;;;26.30;45.20;;;;;;5006551;28;20439;-76
2023/07/26 07:42:11;;;;;;;1.43;1.33;;;26.30;45.30;;;;;;5005376;28;20443;-74
2023/07/26 07:44:39;;;;;;;2.40;1.67;;;26.40;45.30;;;;;;5011122;28;20476;-75
2023/07/26 07:47:06;;;;;;;2.60;1.60;;;26.40;45.20;;;;;;5011646;28;20524;-78
2023/07/26 07:49:39;;;;;;;6.90;1.70;;;26.50;45.10;;;;;;5014213;28;20441;-76
2023/07/26 07:52:07;;;;;;;3.53;1.70;;;26.60;45.10;;;;;;5010880;28;20472;-76
2023/07/26 07:54:35;;;;;;;1.90;1.80;;;26.70;45.00;;;;;;5009645;28;20444;-75
2023/07/26 07:57:03;;;;;;;3.83;2.53;;;26.70;44.90;;;;;;5013122;28;20606;-75
2023/07/26 07:59:33;;;;;;;2.10;1.60;;;26.90;44.80;;;;;;5010306;28;20450;-76
2023/07/26 08:02:01;;;;;;;4.23;2.20;;;27.00;44.70;;;;;;5007062;28;20532;-76
2023/07/26 08:04:28;;;;;;;2.37;2.17;;;27.00;44.50;;;;;;5010160;28;20411;-75
2023/07/26 08:06:57;;;;;;;1.97;1.87;;;27.10;44.50;;;;;;5008813;28;20440;-75
2023/07/26 08:09:26;;;;;;;4.07;1.87;;;27.20;44.20;;;;;;5005885;28;20919;-76
2023/07/26 08:11:54;;;;;;;5.60;1.87;;;27.30;44.10;;;;;;5008768;28;20479;-77
2023/07/26 08:14:21;;;;;;;2.30;1.90;;;27.40;43.70;;;;;;5007320;28;20456;-76
2023/07/26 08:16:50;;;;;;;2.17;1.60;;;27.40;43.50;;;;;;5006539;28;20402;-79
2023/07/26 08:19:18;;;;;;;7.13;1.50;;;27.30;43.40;;;;;;5004928;28;20474;-77
2023/07/26 08:21:46;;;;;;;2.07;1.97;;;27.20;43.40;;;;;;5008090;28;20519;-78
2023/07/26 08:24:15;;;;;;;2.23;1.57;;;27.10;43.50;;;;;;5008585;28;20491;-77
2023/07/26 08:26:43;;;;;;;1.83;1.73;;;27.00;43.70;;;;;;5009398;28;20454;-76
2023/07/26 08:29:11;;;;;;;1.77;1.67;;;26.90;43.80;;;;;;5005996;28;20499;-76
2023/07/26 08:31:40;;;;;;;1.97;1.83;;;26.90;43.80;;;;;;5014280;28;20462;-76
2023/07/26 08:34:10;;;;;;;7.33;1.60;;;26.90;44.00;;;;;;5015304;28;20462;-77
2023/07/26 08:36:38;;;;;;;5.33;1.30;;;26.90;44.10;;;;;;5009285;28;20550;-76
2023/07/26 08:39:07;;;;;;;1.80;1.57;;;27.00;44.20;;;;;;5006513;28;20451;-78
2023/07/26 08:41:43;;;;;;;1.73;1.63;;;27.10;44.10;;;;;;5011154;28;20458;-79
2023/07/26 08:44:11;;;;;;;1.73;1.63;;;27.20;44.60;;;;;;5009443;28;20531;-79
2023/07/26 08:46:39;;;;;;;1.90;1.80;;;27.30;43.90;;;;;;5007671;28;20446;-78
2023/07/26 08:49:08;;;;;;;2.03;1.93;;;27.30;43.90;;;;;;5006237;28;20475;-80
2023/07/26 08:51:37;;;;;;;1.90;1.80;;;27.40;44.00;;;;;;5008452;28;20431;-79
2023/07/26 08:54:06;;;;;;;2.50;2.00;;;27.60;44.00;;;;;;5005183;28;20481;-79
2023/07/26 08:56:34;;;;;;;2.60;1.63;;;27.70;43.90;;;;;;5010755;28;20466;-77
2023/07/26 08:59:02;;;;;;;1.63;1.40;;;27.70;43.50;;;;;;5012211;28;20980;-78
2023/07/26 09:01:30;;;;;;;4.87;1.50;;;27.70;43.40;;;;;;5015039;28;20418;-79
2023/07/26 09:04:14;;;;;;;3.00;1.60;;;27.80;43.60;;;;;;5011585;28;20431;-80
2023/07/26 09:06:44;;;;;;;2.00;1.50;;;27.80;43.30;;;;;;5013410;28;20536;-79
2023/07/26 09:09:12;;;;;;;1.50;1.40;;;27.90;43.20;;;;;;5010822;28;20525;-80
2023/07/26 09:11:49;;;;;;;1.50;1.40;;;28.00;43.20;;;;;;5010454;28;20476;-79
2023/07/26 09:14:16;;;;;;;3.03;1.40;;;28.10;43.10;;;;;;5016505;28;20490;-80
2023/07/26 09:16:47;;;;;;;2.13;1.93;;;28.10;42.80;;;;;;5011567;28;20485;-78
2023/07/26 09:19:15;;;;;;;2.80;1.60;;;28.20;42.60;;;;;;5010658;28;20494;-76
2023/07/26 09:21:44;;;;;;;3.23;1.40;;;28.20;42.40;;;;;;5007027;28;20455;-79
2023/07/26 09:24:12;;;;;;;1.57;1.30;;;28.30;42.20;;;;;;5011807;28;20494;-78
2023/07/26 09:26:41;;;;;;;1.77;1.40;;;28.30;42.00;;;;;;5009807;28;20498;-79
2023/07/26 09:29:10;;;;;;;1.30;1.20;;;28.30;41.90;;;;;;5009865;28;20430;-79
2023/07/26 09:31:38;;;;;;;3.93;1.53;;;28.30;42.00;;;;;;5011436;28;20439;-80
2023/07/26 09:34:08;;;;;;;1.30;1.20;;;28.50;41.90;;;;;;5012002;28;20450;-79
2023/07/26 09:36:44;;;;;;;2.23;1.63;;;28.50;41.40;;;;;;5014896;28;20415;-79
2023/07/26 09:39:13;;;;;;;2.17;2.07;;;28.50;41.00;;;;;;5009580;28;20499;-80
2023/07/26 09:41:41;;;;;;;1.87;1.77;;;28.40;40.90;;;;;;5013011;28;20501;-82
2023/07/26 09:44:13;;;;;;;1.63;1.53;;;28.50;41.20;;;;;;5013881;28;20412;-79
2023/07/26 09:46:48;;;;;;;2.07;1.70;;;28.70;40.90;;;;;;5011310;28;20475;-79
2023/07/26 09:49:17;;;;;;;1.53;1.53;;;28.70;40.40;;;;;;5009331;28;20493;-80
2023/07/26 09:51:53;;;;;;;1.20;1.20;;;28.60;40.40;;;;;;5008105;28;20506;-78
2023/07/26 09:54:26;;;;;;;1.67;1.57;;;28.50;40.70;;;;;;5006720;28;20595;-79
2023/07/26 09:56:59;;;;;;;1.67;1.53;;;28.50;40.70;;;;;;5011741;28;20538;-77
2023/07/26 09:59:29;;;;;;;1.60;1.50;;;28.50;40.60;;;;;;5007983;28;20505;-78
2023/07/26 10:02:00;;;;;;;1.63;1.53;;;28.50;40.50;;;;;;5010577;28;20507;-78
2023/07/26 10:04:32;;;;;;;2.10;2.00;;;28.60;40.70;;;;;;5011118;28;20470;-77
2023/07/26 10:07:02;;;;;;;2.07;1.97;;;28.80;40.40;;;;;;5012974;28;20403;-78
2023/07/26 10:09:32;;;;;;;1.90;1.73;;;28.80;40.10;;;;;;5012456;28;20410;-78
2023/07/26 10:12:00;;;;;;;3.20;1.97;;;28.90;40.00;;;;;;5007815;28;20499;-78
2023/07/26 10:14:27;;;;;;;2.50;1.80;;;28.90;40.00;;;;;;5008474;28;20412;-79
2023/07/26 10:16:55;;;;;;;2.77;1.97;;;28.90;40.50;;;;;;5010352;28;20535;-78
2023/07/26 10:19:23;;;;;;;1.50;1.50;;;29.00;40.00;;;;;;5013932;28;20526;-79
2023/07/26 10:21:51;;;;;;;2.60;1.60;;;29.10;39.70;;;;;;5012333;28;20482;-79
2023/07/26 10:24:20;;;;;;;1.77;1.67;;;29.20;39.50;;;;;;5013918;28;20528;-79
2023/07/26 10:26:49;;;;;;;6.10;1.80;;;29.40;39.20;;;;;;5014323;28;20411;-79
2023/07/26 10:29:17;;;;;;;1.73;1.63;;;29.40;38.90;;;;;;5014165;28;20495;-79
2023/07/26 10:31:48;;;;;;;1.20;1.20;;;29.50;38.80;;;;;;5013902;28;20468;-78
2023/07/26 10:34:21;;;;;;;1.67;1.57;;;29.50;38.80;;;;;;5012627;28;20521;-79
2023/07/26 10:36:50;;;;;;;1.50;1.40;;;29.60;38.60;;;;;;5013385;28;20443;-79
2023/07/26 10:39:18;;;;;;;1.20;1.20;;;29.60;38.40;;;;;;5015596;28;20453;-79
2023/07/26 10:41:51;;;;;;;1.30;1.30;;;29.80;38.60;;;;;;5017269;28;20411;-79
2023/07/26 10:44:19;;;;;;;1.40;1.30;;;29.80;38.10;;;;;;5018069;28;20444;-79
2023/07/26 10:46:49;;;;;;;1.83;1.20;;;29.80;38.20;;;;;;5013052;28;20977;-78
2023/07/26 10:49:18;;;;;;;1.60;1.50;;;29.90;38.50;;;;;;5015282;28;20434;-78
2023/07/26 10:51:56;;;;;;;4.03;1.20;;;30.00;38.40;;;;;;5015845;28;20461;-77
2023/07/26 10:54:35;;;;;;;1.27;1.20;;;30.10;38.10;;;;;;5015690;28;20467;-77
2023/07/26 10:57:16;;;;;;;1.20;1.00;;;30.20;37.80;;;;;;5016076;28;20460;-76
2023/07/26 11:00:00;;;;;;;1.40;1.30;;;30.40;37.70;;;;;;5018393;28;20565;-81
2023/07/26 11:02:38;;;;;;;1.43;1.33;;;30.40;37.10;;;;;;5021172;28;20417;-78
2023/07/26 11:05:09;;;;;;;1.13;1.03;;;30.60;36.80;;;;;;5014603;28;20444;-79
2023/07/26 11:07:59;;;;;;;0.87;0.87;;;30.70;36.40;;;;;;5018632;28;20439;-78
2023/07/26 11:10:29;;;;;;;1.20;1.20;;;30.80;36.10;;;;;;5013167;28;20456;-78
2023/07/26 11:13:09;;;;;;;1.33;1.23;;;31.00;36.10;;;;;;5016074;28;20443;-78
2023/07/26 11:15:38;;;;;;;1.20;1.20;;;31.10;35.90;;;;;;5015280;28;20496;-77
2023/07/26 11:18:26;;;;;;;1.37;1.27;;;31.00;35.60;;;;;;5018355;28;20460;-79
2023/07/26 11:20:56;;;;;;;2.20;2.10;;;30.90;35.60;;;;;;5020226;28;20479;-78
2023/07/26 11:23:27;;;;;;;1.87;1.77;;;30.90;35.80;;;;;;5017576;28;20935;-79
2023/07/26 11:25:56;;;;;;;1.43;1.43;;;30.90;35.50;;;;;;5008754;28;20455;-78
2023/07/26 11:28:29;;;;;;;1.30;1.30;;;31.10;35.60;;;;;;5016702;28;20883;-79
2023/07/26 11:30:58;;;;;;;13.50;1.60;;;31.20;35.00;;;;;;5016992;28;20460;-79
2023/07/26 11:33:28;;;;;;;9.37;1.60;;;31.70;35.00;;;;;;5014435;28;20958;-79
2023/07/26 11:35:56;;;;;;;1.50;1.40;;;31.70;34.90;;;;;;5016846;28;20436;-79
2023/07/26 11:38:24;;;;;;;7.63;1.20;;;32.10;34.50;;;;;;5017040;28;20460;-78
2023/07/26 11:40:53;;;;;;;1.30;1.30;;;32.40;33.80;;;;;;5016342;28;20475;-79
2023/07/26 11:43:21;;;;;;;1.10;1.10;;;32.60;33.40;;;;;;5016198;28;20460;-79
2023/07/26 11:45:50;;;;;;;1.40;1.20;;;32.50;32.80;;;;;;5016951;28;20510;-79
2023/07/26 11:48:18;;;;;;;1.50;1.50;;;32.10;33.10;;;;;;5012286;28;20453;-79
2023/07/26 11:50:46;;;;;;;3.03;1.43;;;32.10;34.00;;;;;;5013739;28;20474;-79
2023/07/26 11:53:15;;;;;;;2.03;1.93;;;32.60;33.90;;;;;;5017353;28;20816;-79
2023/07/26 11:56:03;;;;;;;6.23;2.20;;;33.50;33.00;;;;;;5010527;28;20531;-75
2023/07/26 11:58:33;;;;;;;3.90;2.77;;;33.90;32.10;;;;;;5008121;28;20518;-79
2023/07/26 12:01:03;;;;;;;9.90;2.67;;;34.30;31.90;;;;;;5007705;28;20523;-79
2023/07/26 12:03:31;;;;;;;2.73;2.50;;;34.30;31.20;;;;;;5011069;28;20564;-79
2023/07/26 12:06:00;;;;;;;3.37;2.30;;;34.40;31.90;;;;;;5010965;28;20432;-78
2023/07/26 12:08:34;;;;;;;1.87;1.77;;;34.80;31.60;;;;;;5013625;28;20471;-79
2023/07/26 12:11:02;;;;;;;3.23;1.83;;;35.30;31.40;;;;;;5013243;28;20448;-78
2023/07/26 12:13:33;;;;;;;3.90;2.10;;;35.60;31.10;;;;;;5013047;28;20443;-78
2023/07/26 12:16:03;;;;;;;2.83;2.23;;;35.90;30.60;;;;;;5013158;28;20464;-79
2023/07/26 12:18:32;;;;;;;5.30;1.93;;;36.10;30.30;;;;;;5010482;28;20472;-77
2023/07/26 12:21:02;;;;;;;3.10;1.60;;;36.20;30.00;;;;;;5011694;28;20472;-78
2023/07/26 12:23:51;;;;;;;1.90;1.27;;;36.30;29.80;;;;;;5001387;28;20447;-77
2023/07/26 12:26:20;;;;;;;1.80;1.70;;;35.90;29.70;;;;;;5011371;28;20464;-79
2023/07/26 12:28:48;;;;;;;1.40;1.40;;;36.10;30.40;;;;;;5011080;28;20479;-78
2023/07/26 12:31:22;;;;;;;1.80;1.70;;;36.10;29.60;;;;;;5008958;28;20498;-78
2023/07/26 12:33:57;;;;;;;2.60;1.50;;;35.80;29.60;;;;;;5004973;28;20449;-78
2023/07/26 12:36:26;;;;;;;1.60;1.60;;;35.00;29.60;;;;;;5011535;28;20460;-76
2023/07/26 12:38:54;;;;;;;1.67;1.57;;;34.30;30.10;;;;;;5012528;28;21058;-76
2023/07/26 12:41:23;;;;;;;4.07;1.57;;;33.70;31.00;;;;;;5012852;28;20559;-77
2023/07/26 12:43:52;;;;;;;1.60;1.50;;;32.90;31.70;;;;;;5012333;28;20539;-78
2023/07/26 12:46:22;;;;;;;1.70;1.60;;;32.30;32.20;;;;;;5013077;28;20432;-76
2023/07/26 12:48:54;;;;;;;1.93;1.30;;;31.80;33.10;;;;;;5012716;28;20471;-76
2023/07/26 12:51:22;;;;;;;1.97;1.60;;;31.30;33.80;;;;;;5007455;28;20544;-76
2023/07/26 12:53:50;;;;;;;1.67;1.57;;;31.10;34.80;;;;;;5009694;28;20459;-78
2023/07/26 12:56:18;;;;;;;3.57;1.63;;;30.80;35.30;;;;;;5012210;28;20411;-77